Besiktas Bosphorus — TCOG3 — position and weather

sailwx.info

Track history (hours):
 
Tides and Currents Weather Stations Pressure Air Temp Water Temp Dewpoint Dewpoint Depression Visibility Wind Speed Wind Dir Waves Ship Positions

Besiktas Bosphorus

Last reported at 2017-Feb-10 22:16 UTC. Time now 2017-Feb-26 06:14 UTC.
Position N 27°38' W 015°23'.
Warning: this ship's position is 15 days out of date.

Length 274 m; draft 9 m.

Type: Ship (hazmat cat A). MMSI: 271000817.

Date/timePositionNaut miles runAvg speedWind from/ knotsBaromVisibWave heightAir tempDewpointWater temp
2017-Feb-10 22:16N 27°38' W 015°23'913.1
2017-Feb-10 21:33N 27°46' W 015°18'1313.2
2017-Feb-10 20:34N 27°59' W 015°16'1111.2
2017-Feb-10 19:33N 28°08' W 015°24'0 0.2
2017-Feb-10 18:32N 28°08' W 015°24'0 0.0
2017-Feb-10 17:32N 28°08' W 015°24'0 0.0
2017-Feb-10 16:32N 28°08' W 015°24'0 0.0
2017-Feb-10 15:20N 28°08' W 015°24'0 0.1
2017-Feb-10 14:32N 28°08' W 015°24'0 0.0
2017-Feb-10 13:32N 28°08' W 015°24'0 0.0
2017-Feb-10 12:32N 28°08' W 015°24'0 0.0
2017-Feb-10 11:23N 28°08' W 015°24'0 0.1
2017-Feb-10 10:26N 28°08' W 015°24'1 1.5
2017-Feb-10 09:33N 28°08' W 015°22'6 5.7
2017-Feb-10 08:33N 28°09' W 015°16'1615.8
2017-Feb-10 07:33N 28°17' W 015°00'1313.4
2017-Feb-10 06:33N 28°28' W 014°52'1111.2
2017-Feb-10 05:33N 28°38' W 014°45'  
2017-Feb-07 15:33N 38°14' W 010°06'1515.0
2017-Feb-07 14:33N 38°29' W 010°10'1515.1
2017-Feb-07 13:33N 38°44' W 010°13'1515.1
2017-Feb-07 12:34N 38°59' W 010°14'1515.3
2017-Feb-07 11:34N 39°14' W 010°14'  
2017-Feb-05 02:17N 49°40' W 003°48'811.2
2017-Feb-05 01:33N 49°44' W 003°37'9 6.3
2017-Feb-05 00:12N 49°48' W 003°26'4 6.2
2017-Feb-04 23:33N 49°50' W 003°20'6 6.2
2017-Feb-04 22:33N 49°53' W 003°12'7 6.8
2017-Feb-04 21:33N 49°56' W 003°02'8 7.5
2017-Feb-04 20:33N 49°59' W 002°52'10 8.3
2017-Feb-04 19:23N 50°02' W 002°38'71 6.4
2017-Feb-04 08:16N 49°56' W 000°48'710.3
2017-Feb-04 07:33N 49°50' W 000°40'1010.2
2017-Feb-04 06:33N 49°43' W 000°30'1010.1
2017-Feb-04 05:33N 49°36' W 000°17'1 0.6
2017-Feb-04 04:31N 49°36' W 000°17'0 0.2
2017-Feb-04 03:31N 49°36' W 000°17'0 0.0
2017-Feb-04 02:31N 49°36' W 000°17'0 0.1
2017-Feb-04 01:31N 49°36' W 000°17'0 0.0
2017-Feb-04 00:31N 49°36' W 000°16'0 0.0
2017-Feb-03 23:31N 49°36' W 000°17'0 0.0
2017-Feb-03 22:28N 49°36' W 000°17'0 0.0
2017-Feb-03 21:33N 49°36' W 000°17'0 0.0
2017-Feb-03 20:33N 49°36' W 000°17'0 0.0
2017-Feb-03 19:33N 49°36' W 000°17'0 0.0
2017-Feb-03 18:33N 49°36' W 000°17'0 0.0
2017-Feb-03 17:34N 49°36' W 000°17'0 0.2
2017-Feb-03 16:34N 49°36' W 000°17'0 0.1
2017-Feb-03 15:34N 49°36' W 000°17'0 0.1
2017-Feb-03 14:34N 49°36' W 000°17'0 0.0
2017-Feb-03 13:33N 49°36' W 000°17'0 0.0
2017-Feb-03 12:33N 49°36' W 000°17'2 2.2
2017-Feb-03 11:33N 49°36' W 000°13'1110.8
2017-Feb-03 10:33N 49°30' E 000°01'6 5.6
2017-Feb-03 09:32N 49°28' E 000°09'0 0.0
2017-Feb-03 08:32N 49°28' E 000°09'0 0.0
2017-Feb-03 07:32N 49°28' E 000°09'0 0.0
2017-Feb-03 06:32N 49°28' E 000°09'0 0.0
2017-Feb-03 05:32N 49°28' E 000°09'0 0.0
2017-Feb-03 04:32N 49°28' E 000°09'0 0.0
2017-Feb-03 03:32N 49°28' E 000°09'0 0.0
2017-Feb-03 02:32N 49°28' E 000°09'0 0.0
2017-Feb-03 01:32N 49°28' E 000°09'0 0.0
2017-Feb-03 00:32N 49°28' E 000°09'0 0.0
2017-Feb-02 23:32N 49°28' E 000°09'0 0.0
2017-Feb-02 22:32N 49°28' E 000°09'0 0.0
2017-Feb-02 21:32N 49°28' E 000°09'0 0.0
2017-Feb-02 20:32N 49°28' E 000°09'0 0.0
2017-Feb-02 19:32N 49°28' E 000°09'0 0.0
2017-Feb-02 18:32N 49°28' E 000°09'0 0.0
2017-Feb-02 17:32N 49°28' E 000°09'0 0.0
2017-Feb-02 16:32N 49°28' E 000°09'0 0.0
2017-Feb-02 15:32N 49°28' E 000°09'0 0.0
2017-Feb-02 14:32N 49°28' E 000°09'0 0.0
2017-Feb-02 13:32N 49°28' E 000°09'0 0.0
2017-Feb-02 12:32N 49°28' E 000°09'0 0.0
2017-Feb-02 11:32N 49°28' E 000°09'0 0.0
2017-Feb-02 10:32N 49°28' E 000°09'0 0.0
2017-Feb-02 09:32N 49°28' E 000°09'0 0.0
2017-Feb-02 08:32N 49°28' E 000°09'0 0.0
2017-Feb-02 07:32N 49°28' E 000°09'0 0.0
2017-Feb-02 06:32N 49°28' E 000°09'0 0.0
2017-Feb-02 05:32N 49°28' E 000°09'0 0.0
2017-Feb-02 04:32N 49°28' E 000°09'0 0.0
2017-Feb-02 03:32N 49°28' E 000°09'0 0.0
2017-Feb-02 02:32N 49°28' E 000°09'0 0.0
2017-Feb-02 01:32N 49°28' E 000°09'0 0.0
2017-Feb-02 00:32N 49°28' E 000°09'0 0.0
2017-Feb-01 23:32N 49°28' E 000°09'0 0.0
2017-Feb-01 22:32N 49°28' E 000°09'0 0.0
2017-Feb-01 21:32N 49°28' E 000°09'0 0.0
2017-Feb-01 20:32N 49°28' E 000°09'0 0.0
2017-Feb-01 19:32N 49°28' E 000°09'0 0.0
2017-Feb-01 18:32N 49°28' E 000°09'0 0.0
2017-Feb-01 17:32N 49°28' E 000°09'0 0.0
2017-Feb-01 16:32N 49°28' E 000°09'0 0.0
2017-Feb-01 15:32N 49°28' E 000°09'0 0.0
2017-Feb-01 14:32N 49°28' E 000°09'0 0.0
2017-Feb-01 12:32N 49°28' E 000°09'0 0.0
2017-Feb-01 11:33N 49°28' E 000°09'4 4.0
2017-Feb-01 10:33N 49°29' E 000°03'1212.0
2017-Feb-01 09:33N 49°33' W 000°14'3 2.9
2017-Feb-01 08:33N 49°36' W 000°17'0 0.1
2017-Feb-01 07:33N 49°36' W 000°17'0 0.0
2017-Feb-01 06:33N 49°36' W 000°17'0 0.0
2017-Feb-01 05:33N 49°36' W 000°17'0 0.0
2017-Feb-01 04:33N 49°36' W 000°17'0 0.1
2017-Feb-01 03:27N 49°36' W 000°17'0 0.1
2017-Feb-01 02:33N 49°36' W 000°17'0 0.2
2017-Feb-01 01:33N 49°36' W 000°17'0 0.1
2017-Feb-01 00:33N 49°36' W 000°17'0 0.0
2017-Jan-31 23:33N 49°36' W 000°17'0 0.0
2017-Jan-31 22:33N 49°36' W 000°17'  
Track history (hours):
 
Tides and Currents Weather Stations Pressure Air Temp Water Temp Dewpoint Dewpoint Depression Visibility Wind Speed Wind Dir Waves Ship Positions

Besiktas Bosphorus

Last reported at 2017-Feb-10 22:16 UTC. Time now 2017-Feb-26 06:14 UTC.
Position N 27°38' W 015°23'.
Warning: this ship's position is 15 days out of date.

Length 274 m; draft 9 m.

Type: Ship (hazmat cat A). MMSI: 271000817.

Date/timePositionNaut miles runAvg speedWind from/ knotsBaromVisibWave heightAir tempDewpointWater temp
2017-Feb-10 22:16N 27°38' W 015°23'913.1
2017-Feb-10 21:33N 27°46' W 015°18'1313.2
2017-Feb-10 20:34N 27°59' W 015°16'1111.2
2017-Feb-10 19:33N 28°08' W 015°24'0 0.2
2017-Feb-10 18:32N 28°08' W 015°24'0 0.0
2017-Feb-10 17:32N 28°08' W 015°24'0 0.0
2017-Feb-10 16:32N 28°08' W 015°24'0 0.0
2017-Feb-10 15:20N 28°08' W 015°24'0 0.1
2017-Feb-10 14:32N 28°08' W 015°24'0 0.0
2017-Feb-10 13:32N 28°08' W 015°24'0 0.0
2017-Feb-10 12:32N 28°08' W 015°24'0 0.0
2017-Feb-10 11:23N 28°08' W 015°24'0 0.1
2017-Feb-10 10:26N 28°08' W 015°24'1 1.5
2017-Feb-10 09:33N 28°08' W 015°22'6 5.7
2017-Feb-10 08:33N 28°09' W 015°16'1615.8
2017-Feb-10 07:33N 28°17' W 015°00'1313.4
2017-Feb-10 06:33N 28°28' W 014°52'1111.2
2017-Feb-10 05:33N 28°38' W 014°45'  
2017-Feb-07 15:33N 38°14' W 010°06'1515.0
2017-Feb-07 14:33N 38°29' W 010°10'1515.1
2017-Feb-07 13:33N 38°44' W 010°13'1515.1
2017-Feb-07 12:34N 38°59' W 010°14'1515.3
2017-Feb-07 11:34N 39°14' W 010°14'  
2017-Feb-05 02:17N 49°40' W 003°48'811.2
2017-Feb-05 01:33N 49°44' W 003°37'9 6.3
2017-Feb-05 00:12N 49°48' W 003°26'4 6.2
2017-Feb-04 23:33N 49°50' W 003°20'6 6.2
2017-Feb-04 22:33N 49°53' W 003°12'7 6.8
2017-Feb-04 21:33N 49°56' W 003°02'8 7.5
2017-Feb-04 20:33N 49°59' W 002°52'10 8.3
2017-Feb-04 19:23N 50°02' W 002°38'71 6.4
2017-Feb-04 08:16N 49°56' W 000°48'710.3
2017-Feb-04 07:33N 49°50' W 000°40'1010.2
2017-Feb-04 06:33N 49°43' W 000°30'1010.1
2017-Feb-04 05:33N 49°36' W 000°17'1 0.6
2017-Feb-04 04:31N 49°36' W 000°17'0 0.2
2017-Feb-04 03:31N 49°36' W 000°17'0 0.0
2017-Feb-04 02:31N 49°36' W 000°17'0 0.1
2017-Feb-04 01:31N 49°36' W 000°17'0 0.0
2017-Feb-04 00:31N 49°36' W 000°16'0 0.0
2017-Feb-03 23:31N 49°36' W 000°17'0 0.0
2017-Feb-03 22:28N 49°36' W 000°17'0 0.0
2017-Feb-03 21:33N 49°36' W 000°17'0 0.0
2017-Feb-03 20:33N 49°36' W 000°17'0 0.0
2017-Feb-03 19:33N 49°36' W 000°17'0 0.0
2017-Feb-03 18:33N 49°36' W 000°17'0 0.0
2017-Feb-03 17:34N 49°36' W 000°17'0 0.2
2017-Feb-03 16:34N 49°36' W 000°17'0 0.1
2017-Feb-03 15:34N 49°36' W 000°17'0 0.1
2017-Feb-03 14:34N 49°36' W 000°17'0 0.0
2017-Feb-03 13:33N 49°36' W 000°17'0 0.0
2017-Feb-03 12:33N 49°36' W 000°17'2 2.2
2017-Feb-03 11:33N 49°36' W 000°13'1110.8
2017-Feb-03 10:33N 49°30' E 000°01'6 5.6
2017-Feb-03 09:32N 49°28' E 000°09'0 0.0
2017-Feb-03 08:32N 49°28' E 000°09'0 0.0
2017-Feb-03 07:32N 49°28' E 000°09'0 0.0
2017-Feb-03 06:32N 49°28' E 000°09'0 0.0
2017-Feb-03 05:32N 49°28' E 000°09'0 0.0
2017-Feb-03 04:32N 49°28' E 000°09'0 0.0
2017-Feb-03 03:32N 49°28' E 000°09'0 0.0
2017-Feb-03 02:32N 49°28' E 000°09'0 0.0
2017-Feb-03 01:32N 49°28' E 000°09'0 0.0
2017-Feb-03 00:32N 49°28' E 000°09'0 0.0
2017-Feb-02 23:32N 49°28' E 000°09'0 0.0
2017-Feb-02 22:32N 49°28' E 000°09'0 0.0
2017-Feb-02 21:32N 49°28' E 000°09'0 0.0
2017-Feb-02 20:32N 49°28' E 000°09'0 0.0
2017-Feb-02 19:32N 49°28' E 000°09'0 0.0
2017-Feb-02 18:32N 49°28' E 000°09'0 0.0
2017-Feb-02 17:32N 49°28' E 000°09'0 0.0
2017-Feb-02 16:32N 49°28' E 000°09'0 0.0
2017-Feb-02 15:32N 49°28' E 000°09'0 0.0
2017-Feb-02 14:32N 49°28' E 000°09'0 0.0
2017-Feb-02 13:32N 49°28' E 000°09'0 0.0
2017-Feb-02 12:32N 49°28' E 000°09'0 0.0
2017-Feb-02 11:32N 49°28' E 000°09'0 0.0
2017-Feb-02 10:32N 49°28' E 000°09'0 0.0
2017-Feb-02 09:32N 49°28' E 000°09'0 0.0
2017-Feb-02 08:32N 49°28' E 000°09'0 0.0
2017-Feb-02 07:32N 49°28' E 000°09'0 0.0
2017-Feb-02 06:32N 49°28' E 000°09'0 0.0
2017-Feb-02 05:32N 49°28' E 000°09'0 0.0
2017-Feb-02 04:32N 49°28' E 000°09'0 0.0
2017-Feb-02 03:32N 49°28' E 000°09'0 0.0
2017-Feb-02 02:32N 49°28' E 000°09'0 0.0
2017-Feb-02 01:32N 49°28' E 000°09'0 0.0
2017-Feb-02 00:32N 49°28' E 000°09'0 0.0
2017-Feb-01 23:32N 49°28' E 000°09'0 0.0
2017-Feb-01 22:32N 49°28' E 000°09'0 0.0
2017-Feb-01 21:32N 49°28' E 000°09'0 0.0
2017-Feb-01 20:32N 49°28' E 000°09'0 0.0
2017-Feb-01 19:32N 49°28' E 000°09'0 0.0
2017-Feb-01 18:32N 49°28' E 000°09'0 0.0
2017-Feb-01 17:32N 49°28' E 000°09'0 0.0
2017-Feb-01 16:32N 49°28' E 000°09'0 0.0
2017-Feb-01 15:32N 49°28' E 000°09'0 0.0
2017-Feb-01 14:32N 49°28' E 000°09'0 0.0
2017-Feb-01 12:32N 49°28' E 000°09'0 0.0
2017-Feb-01 11:33N 49°28' E 000°09'4 4.0
2017-Feb-01 10:33N 49°29' E 000°03'1212.0
2017-Feb-01 09:33N 49°33' W 000°14'3 2.9
2017-Feb-01 08:33N 49°36' W 000°17'0 0.1
2017-Feb-01 07:33N 49°36' W 000°17'0 0.0
2017-Feb-01 06:33N 49°36' W 000°17'0 0.0
2017-Feb-01 05:33N 49°36' W 000°17'0 0.0
2017-Feb-01 04:33N 49°36' W 000°17'0 0.1
2017-Feb-01 03:27N 49°36' W 000°17'0 0.1
2017-Feb-01 02:33N 49°36' W 000°17'0 0.2
2017-Feb-01 01:33N 49°36' W 000°17'0 0.1
2017-Feb-01 00:33N 49°36' W 000°17'0 0.0
2017-Jan-31 23:33N 49°36' W 000°17'0 0.0
2017-Jan-31 22:33N 49°36' W 000°17'  

Dump ship's entire track history